Time;durP1;ratioP1;P1;durP2;ratioP2;P2;SDS_P1;SDS_P2;PMS_P1;PMS_P2;Temp;Humidity;BMP_temperature;BMP_pressure;BME280_temperature;BME280_humidity;BME280_pressure;Samples;Min_cycle;Max_cycle;Signal;HPM_P1;HPM_P2
2023/08/20 00:01:21;;;;;;;5.57;2.17;;;16.70;99.90;;;;;;5049059;28;20386;-78
2023/08/20 00:03:48;;;;;;;5.22;1.77;;;16.60;99.90;;;;;;5048964;28;20037;-80
2023/08/20 00:06:14;;;;;;;5.28;1.73;;;16.60;99.90;;;;;;5049021;28;20059;-78
2023/08/20 00:08:39;;;;;;;6.00;1.75;;;16.60;99.90;;;;;;5043755;28;20036;-80
2023/08/20 00:11:05;;;;;;;4.63;1.77;;;16.60;99.90;;;;;;5047954;28;20049;-78
2023/08/20 00:13:31;;;;;;;6.82;2.28;;;16.60;99.90;;;;;;5050192;28;20055;-78
2023/08/20 00:15:57;;;;;;;8.25;2.30;;;16.60;99.90;;;;;;5027321;28;20040;-78
2023/08/20 00:18:23;;;;;;;11.05;2.70;;;16.50;99.90;;;;;;5042605;28;20036;-80
2023/08/20 00:20:49;;;;;;;5.40;2.40;;;16.50;99.90;;;;;;5039899;28;20045;-79
2023/08/20 00:23:15;;;;;;;8.30;1.83;;;16.50;99.90;;;;;;5041125;28;20448;-78
2023/08/20 00:25:41;;;;;;;5.20;1.85;;;16.50;99.90;;;;;;5042209;28;20432;-78
2023/08/20 00:28:06;;;;;;;4.57;2.10;;;16.50;99.90;;;;;;5041712;28;20045;-79
2023/08/20 00:30:32;;;;;;;2.90;1.63;;;16.50;99.90;;;;;;5041937;28;20054;-79
2023/08/20 00:32:58;;;;;;;4.85;1.90;;;16.50;99.90;;;;;;5045939;28;20508;-79
2023/08/20 00:35:24;;;;;;;4.45;1.52;;;16.50;99.90;;;;;;5043315;28;20040;-79
2023/08/20 00:37:50;;;;;;;12.85;2.33;;;16.50;99.90;;;;;;5048373;28;20079;-79
2023/08/20 00:40:15;;;;;;;10.85;2.35;;;16.50;99.90;;;;;;5037730;28;20073;-79
2023/08/20 00:42:41;;;;;;;6.20;2.08;;;16.40;99.90;;;;;;5047830;28;20742;-80
2023/08/20 00:45:07;;;;;;;4.57;1.90;;;16.40;99.90;;;;;;5047830;28;20033;-78
2023/08/20 00:47:35;;;;;;;2.92;1.58;;;16.40;99.90;;;;;;5048341;28;20051;-78
2023/08/20 00:50:03;;;;;;;7.35;1.75;;;16.50;99.90;;;;;;5030088;28;20455;-78
2023/08/20 00:52:29;;;;;;;6.53;1.90;;;16.30;99.90;;;;;;5014790;28;20087;-79
2023/08/20 00:54:54;;;;;;;4.18;1.73;;;16.30;99.90;;;;;;5046739;28;20041;-80
2023/08/20 00:57:22;;;;;;;8.15;2.15;;;16.30;99.90;;;;;;5036849;28;20038;-79
2023/08/20 00:59:51;;;;;;;4.22;1.73;;;16.30;99.90;;;;;;5044857;28;20083;-79
2023/08/20 01:02:18;;;;;;;6.28;2.38;;;16.20;99.90;;;;;;5047894;28;20048;-79
2023/08/20 01:04:45;;;;;;;4.22;1.48;;;16.30;99.90;;;;;;5044996;28;20098;-78
2023/08/20 01:07:31;;;;;;;4.22;1.88;;;16.30;99.90;;;;;;5034868;28;20056;-79
2023/08/20 01:10:23;;;;;;;3.45;1.52;;;16.30;99.90;;;;;;5038141;28;20051;-75
2023/08/20 01:12:51;;;;;;;4.80;1.80;;;16.30;99.90;;;;;;5042442;28;20061;-81
2023/08/20 01:15:16;;;;;;;6.10;1.88;;;16.30;99.90;;;;;;5044304;28;20045;-78
2023/08/20 01:17:43;;;;;;;6.10;1.83;;;16.20;99.90;;;;;;5044666;28;20156;-81
2023/08/20 01:20:13;;;;;;;3.63;1.80;;;16.20;99.90;;;;;;5045898;28;20045;-79
2023/08/20 01:23:01;;;;;;;4.47;1.75;;;16.20;99.90;;;;;;5029644;28;20044;-80
2023/08/20 01:25:32;;;;;;;4.60;1.85;;;16.20;99.90;;;;;;5023590;28;20064;-79
2023/08/20 01:28:16;;;;;;;5.82;1.92;;;16.10;99.90;;;;;;5047623;28;20484;-79
2023/08/20 01:30:44;;;;;;;14.05;1.98;;;16.20;99.90;;;;;;5043277;28;20424;-79
2023/08/20 01:33:12;;;;;;;9.80;1.90;;;16.10;99.90;;;;;;5044632;28;20106;-79
2023/08/20 01:35:38;;;;;;;6.53;2.05;;;16.10;99.90;;;;;;5041550;28;20048;-79
2023/08/20 01:38:04;;;;;;;6.35;2.13;;;16.10;99.90;;;;;;5037041;28;20413;-79
2023/08/20 01:40:30;;;;;;;6.07;2.13;;;16.10;99.90;;;;;;5044980;28;20071;-79
2023/08/20 01:42:57;;;;;;;5.40;2.08;;;16.10;99.90;;;;;;5040710;28;20044;-81
2023/08/20 01:45:23;;;;;;;5.70;1.98;;;16.10;99.90;;;;;;5048402;28;20056;-79
2023/08/20 01:47:48;;;;;;;6.05;1.95;;;16.00;99.90;;;;;;5041520;28;20033;-77
2023/08/20 01:50:14;;;;;;;7.25;2.50;;;16.00;99.90;;;;;;5047176;28;20041;-78
2023/08/20 01:52:40;;;;;;;9.82;2.33;;;16.00;99.90;;;;;;5046097;28;20052;-77
2023/08/20 01:55:06;;;;;;;4.63;2.30;;;16.00;99.90;;;;;;5042078;28;20127;-78
2023/08/20 01:57:32;;;;;;;5.68;2.42;;;16.00;99.90;;;;;;5029614;28;20709;-77
2023/08/20 01:59:58;;;;;;;9.23;2.25;;;16.00;99.90;;;;;;5040272;28;20140;-78
2023/08/20 02:02:24;;;;;;;5.28;2.58;;;16.00;99.90;;;;;;5029414;28;20045;-78
2023/08/20 02:04:50;;;;;;;6.97;2.75;;;16.00;99.90;;;;;;5046191;28;20033;-78
2023/08/20 02:07:15;;;;;;;8.32;2.50;;;16.20;99.90;;;;;;5027470;28;20110;-78
2023/08/20 02:09:41;;;;;;;8.93;2.70;;;16.00;99.90;;;;;;5046486;28;20045;-79
2023/08/20 02:12:07;;;;;;;6.80;2.83;;;15.90;99.90;;;;;;5046823;28;20068;-77
2023/08/20 02:14:36;;;;;;;6.75;2.20;;;15.90;99.90;;;;;;5043629;28;20568;-79
2023/08/20 02:17:02;;;;;;;7.80;3.40;;;15.90;99.90;;;;;;5043283;28;20034;-78
2023/08/20 02:19:28;;;;;;;6.85;3.13;;;15.90;99.90;;;;;;5028432;28;20055;-79
2023/08/20 02:21:54;;;;;;;11.75;3.83;;;15.90;99.90;;;;;;5045946;28;20037;-79
2023/08/20 02:24:20;;;;;;;8.18;3.22;;;15.90;99.90;;;;;;5044882;28;20049;-78
2023/08/20 02:26:45;;;;;;;8.52;3.10;;;15.90;99.90;;;;;;5044988;28;20037;-78
2023/08/20 02:29:11;;;;;;;8.52;3.92;;;15.90;99.90;;;;;;5038208;28;20048;-78
2023/08/20 02:31:37;;;;;;;9.73;3.45;;;15.90;99.90;;;;;;5046629;28;20641;-78
2023/08/20 02:34:03;;;;;;;8.20;3.53;;;15.90;99.90;;;;;;5047160;28;20061;-78
2023/08/20 02:36:29;;;;;;;6.18;3.45;;;15.90;99.90;;;;;;5046981;28;20048;-78
2023/08/20 02:38:54;;;;;;;11.20;4.03;;;15.90;99.90;;;;;;5049970;28;20083;-78
2023/08/20 02:41:20;;;;;;;7.75;3.03;;;16.00;99.90;;;;;;5050908;28;20044;-78
2023/08/20 02:43:46;;;;;;;7.05;3.58;;;16.00;99.90;;;;;;5047965;28;20036;-78
2023/08/20 02:46:11;;;;;;;7.45;3.35;;;15.90;99.90;;;;;;5053579;28;20163;-78
2023/08/20 02:48:37;;;;;;;8.90;3.35;;;15.90;99.90;;;;;;5051230;28;20061;-78
2023/08/20 02:51:03;;;;;;;7.82;3.72;;;15.90;99.90;;;;;;5049207;28;20064;-78
2023/08/20 02:53:29;;;;;;;10.93;3.35;;;16.00;99.90;;;;;;5039640;28;20049;-78
2023/08/20 02:55:56;;;;;;;7.93;4.05;;;16.00;99.90;;;;;;5049935;28;20045;-78
2023/08/20 02:58:22;;;;;;;9.50;3.97;;;16.00;99.90;;;;;;5050986;28;20050;-78
2023/08/20 03:00:47;;;;;;;7.03;3.38;;;15.90;99.90;;;;;;5049972;28;20159;-79
2023/08/20 03:03:13;;;;;;;14.23;3.85;;;16.10;99.90;;;;;;5032422;28;20075;-79
2023/08/20 03:05:39;;;;;;;8.43;4.38;;;15.90;99.90;;;;;;5050765;28;20389;-78
2023/08/20 03:08:06;;;;;;;8.00;4.20;;;15.90;99.90;;;;;;5050942;28;20500;-78
2023/08/20 03:10:32;;;;;;;11.35;4.95;;;15.90;99.90;;;;;;5032156;28;20155;-78
2023/08/20 03:12:59;;;;;;;10.43;4.97;;;15.80;99.90;;;;;;5022343;28;20106;-78
2023/08/20 03:15:24;;;;;;;9.88;4.85;;;16.00;99.90;;;;;;5046906;28;20091;-79
2023/08/20 03:17:50;;;;;;;7.70;4.47;;;15.90;99.90;;;;;;5047991;28;20041;-78
2023/08/20 03:20:16;;;;;;;9.20;4.50;;;16.10;99.90;;;;;;5050122;28;20052;-78
2023/08/20 03:22:42;;;;;;;8.27;4.03;;;15.80;99.90;;;;;;5031803;28;20109;-78
2023/08/20 03:25:07;;;;;;;10.57;4.60;;;16.10;99.90;;;;;;5047496;28;20049;-78
2023/08/20 03:27:33;;;;;;;12.20;4.47;;;15.80;99.90;;;;;;5042446;28;20067;-78
2023/08/20 03:29:59;;;;;;;6.95;4.22;;;15.80;99.90;;;;;;5045403;28;20390;-78
2023/08/20 03:32:26;;;;;;;9.52;4.22;;;15.80;99.90;;;;;;5050179;28;20048;-78
2023/08/20 03:34:53;;;;;;;7.72;4.22;;;15.80;99.90;;;;;;5046179;28;20602;-79
2023/08/20 03:37:19;;;;;;;13.07;4.32;;;15.80;99.90;;;;;;5028711;28;20486;-78
2023/08/20 03:39:45;;;;;;;10.13;4.22;;;15.80;99.90;;;;;;5041936;28;20055;-77
2023/08/20 03:42:11;;;;;;;12.63;4.32;;;15.80;99.90;;;;;;5044147;28;20033;-77
2023/08/20 03:44:36;;;;;;;9.98;4.60;;;15.70;99.90;;;;;;5044291;28;20040;-77
2023/08/20 03:47:02;;;;;;;9.52;4.43;;;15.90;99.90;;;;;;5037073;28;20052;-78
2023/08/20 03:49:27;;;;;;;9.35;3.60;;;15.70;99.90;;;;;;5044040;28;22100;-78
2023/08/20 03:51:53;;;;;;;10.68;4.30;;;15.70;99.90;;;;;;5046048;28;20040;-78
2023/08/20 03:54:19;;;;;;;10.52;4.07;;;15.70;99.90;;;;;;5041382;28;21781;-77
2023/08/20 03:56:45;;;;;;;8.10;4.47;;;15.70;99.90;;;;;;5045200;28;20045;-78
2023/08/20 03:59:11;;;;;;;8.73;4.55;;;15.70;99.90;;;;;;5029979;28;20033;-78
2023/08/20 04:01:37;;;;;;;9.05;4.32;;;15.60;99.90;;;;;;5048144;28;20120;-79
2023/08/20 04:04:03;;;;;;;6.95;3.85;;;15.80;99.90;;;;;;5043157;28;20160;-79
2023/08/20 04:06:29;;;;;;;6.38;3.78;;;15.60;99.90;;;;;;5046810;28;20040;-79
2023/08/20 04:08:55;;;;;;;10.48;4.60;;;15.60;99.90;;;;;;5047162;28;20047;-78
2023/08/20 04:11:21;;;;;;;6.72;4.00;;;15.60;99.90;;;;;;5046027;28;20059;-78
2023/08/20 04:13:46;;;;;;;9.35;4.28;;;15.60;99.90;;;;;;5046274;28;20505;-78
2023/08/20 04:16:13;;;;;;;9.48;4.05;;;15.60;99.90;;;;;;5046521;28;20127;-78
2023/08/20 04:18:39;;;;;;;10.70;4.10;;;15.60;99.90;;;;;;5048426;28;20427;-80
2023/08/20 04:21:05;;;;;;;10.45;4.22;;;15.80;99.90;;;;;;5043949;28;20045;-79
2023/08/20 04:23:30;;;;;;;10.43;5.22;;;15.60;99.90;;;;;;5049672;28;20191;-79
2023/08/20 04:25:56;;;;;;;9.27;5.55;;;15.60;99.90;;;;;;5051663;28;20044;-78
2023/08/20 04:28:22;;;;;;;9.13;4.30;;;15.50;99.90;;;;;;5046485;28;20079;-78
2023/08/20 04:30:48;;;;;;;8.13;4.50;;;15.50;99.90;;;;;;5040243;28;20048;-79
2023/08/20 04:33:14;;;;;;;6.65;3.83;;;15.50;99.90;;;;;;5041819;28;20047;-79
2023/08/20 04:35:40;;;;;;;8.85;4.10;;;15.50;99.90;;;;;;5046120;28;20041;-77
2023/08/20 04:38:05;;;;;;;11.27;4.40;;;15.50;99.90;;;;;;5030650;28;20045;-78
2023/08/20 04:40:31;;;;;;;8.68;4.53;;;15.50;99.90;;;;;;5029402;28;20040;-78
2023/08/20 04:42:57;;;;;;;8.15;4.40;;;15.40;99.90;;;;;;5028205;28;20073;-78
2023/08/20 04:45:23;;;;;;;8.55;4.18;;;15.40;99.90;;;;;;5013661;28;20040;-79
2023/08/20 04:47:48;;;;;;;12.18;4.90;;;15.40;99.90;;;;;;5045190;28;20092;-78
2023/08/20 04:50:14;;;;;;;6.45;4.18;;;15.40;99.90;;;;;;5048296;28;20056;-78
2023/08/20 04:52:40;;;;;;;6.50;4.22;;;15.40;99.90;;;;;;5046101;28;20386;-78
2023/08/20 04:55:07;;;;;;;9.43;4.18;;;15.40;99.90;;;;;;5014025;28;20053;-78
2023/08/20 04:57:33;;;;;;;8.82;4.93;;;15.40;99.90;;;;;;5048152;28;20388;-79
2023/08/20 04:59:59;;;;;;;7.82;4.75;;;15.40;99.90;;;;;;5048058;28;20045;-78
2023/08/20 05:02:25;;;;;;;10.82;5.15;;;15.40;99.90;;;;;;5029784;28;20485;-78
2023/08/20 05:04:51;;;;;;;10.98;5.00;;;15.40;99.90;;;;;;5048429;28;20041;-79
2023/08/20 05:07:17;;;;;;;9.10;4.47;;;15.40;99.90;;;;;;5049136;28;20045;-77
2023/08/20 05:09:42;;;;;;;7.68;4.30;;;15.30;99.90;;;;;;5048134;28;20075;-80
2023/08/20 05:12:08;;;;;;;7.38;4.25;;;15.40;99.90;;;;;;5048175;28;20041;-78
2023/08/20 05:14:34;;;;;;;10.20;4.45;;;15.40;99.90;;;;;;5047562;28;20098;-78
2023/08/20 05:17:00;;;;;;;8.93;4.93;;;15.40;99.90;;;;;;5046231;28;20154;-81
2023/08/20 05:19:25;;;;;;;10.93;5.00;;;15.40;99.90;;;;;;5041351;28;20063;-78
2023/08/20 05:21:55;;;;;;;9.35;4.57;;;15.50;99.90;;;;;;5045424;28;20503;-83
2023/08/20 05:24:22;;;;;;;9.13;4.57;;;15.40;99.90;;;;;;5038533;28;20049;-78
2023/08/20 05:27:03;;;;;;;9.63;5.15;;;15.50;99.90;;;;;;5045708;28;20401;-78
2023/08/20 05:29:28;;;;;;;11.00;5.90;;;15.50;99.90;;;;;;5040834;28;20055;-77
2023/08/20 05:31:55;;;;;;;9.70;5.28;;;15.50;99.90;;;;;;5027726;28;21887;-78
2023/08/20 05:34:21;;;;;;;8.73;4.90;;;15.50;99.90;;;;;;5044107;28;20044;-77
2023/08/20 05:36:46;;;;;;;10.05;5.55;;;15.50;99.90;;;;;;5039343;28;20083;-79
2023/08/20 05:39:12;;;;;;;12.93;5.65;;;15.50;99.90;;;;;;5044947;28;20492;-78
2023/08/20 05:41:37;;;;;;;14.38;5.43;;;15.60;99.90;;;;;;5047158;28;20033;-80
2023/08/20 05:44:03;;;;;;;13.57;5.78;;;15.60;99.90;;;;;;5044375;28;20083;-78
2023/08/20 05:46:29;;;;;;;10.32;5.28;;;15.60;99.90;;;;;;5028819;28;20091;-79
2023/08/20 05:48:55;;;;;;;7.57;5.20;;;15.60;99.90;;;;;;5043639;28;20045;-81
2023/08/20 05:51:20;;;;;;;15.73;6.13;;;15.90;99.90;;;;;;5047896;28;20040;-79
2023/08/20 05:53:46;;;;;;;16.13;6.57;;;15.70;99.90;;;;;;5029412;28;20055;-78
2023/08/20 05:56:11;;;;;;;12.90;5.43;;;15.80;99.90;;;;;;5025547;28;20507;-80
2023/08/20 05:58:37;;;;;;;11.50;4.78;;;16.40;99.90;;;;;;5024117;28;20044;-77
2023/08/20 06:01:02;;;;;;;12.88;5.35;;;15.80;99.90;;;;;;5030416;28;20055;-79
2023/08/20 06:03:28;;;;;;;12.27;6.40;;;15.80;99.90;;;;;;5046706;28;20047;-77
2023/08/20 06:05:56;;;;;;;14.43;5.95;;;15.90;99.90;;;;;;5054193;28;20043;-79
2023/08/20 06:08:21;;;;;;;12.13;5.43;;;15.90;99.90;;;;;;5055301;28;20048;-80
2023/08/20 06:10:47;;;;;;;11.73;6.03;;;15.90;99.90;;;;;;5051400;28;20041;-79
2023/08/20 06:13:13;;;;;;;10.10;5.22;;;16.00;99.90;;;;;;5032695;28;20178;-78
2023/08/20 06:15:38;;;;;;;14.80;5.60;;;16.20;99.90;;;;;;5050494;28;20049;-79
2023/08/20 06:18:05;;;;;;;13.38;6.10;;;16.10;99.90;;;;;;5049485;28;20497;-79
2023/08/20 06:20:31;;;;;;;11.30;5.25;;;16.10;99.90;;;;;;5050980;28;20493;-78
2023/08/20 06:22:57;;;;;;;14.40;5.57;;;16.20;99.90;;;;;;5033440;28;20076;-79
2023/08/20 06:25:22;;;;;;;13.57;5.55;;;16.20;99.90;;;;;;5050116;28;20040;-79
2023/08/20 06:27:48;;;;;;;15.95;6.93;;;16.20;99.90;;;;;;5045831;28;20047;-79
2023/08/20 06:30:14;;;;;;;10.40;5.28;;;16.30;99.90;;;;;;5026879;28;20420;-80
2023/08/20 06:32:39;;;;;;;12.98;5.47;;;16.30;99.90;;;;;;5050535;28;20036;-78
2023/08/20 06:35:06;;;;;;;13.32;5.18;;;16.40;99.90;;;;;;5048627;28;20772;-78
2023/08/20 06:37:31;;;;;;;14.70;6.38;;;16.40;99.90;;;;;;5050337;28;20037;-77
2023/08/20 06:39:57;;;;;;;13.68;6.07;;;16.50;99.90;;;;;;5049849;28;20542;-78
2023/08/20 06:42:22;;;;;;;20.45;10.80;;;16.70;99.90;;;;;;5050534;28;20481;-80
2023/08/20 06:44:48;;;;;;;20.45;8.82;;;16.60;99.90;;;;;;5028451;28;20083;-79
2023/08/20 06:47:14;;;;;;;13.27;5.97;;;16.70;99.90;;;;;;5049645;28;20048;-78
2023/08/20 06:49:40;;;;;;;18.48;6.47;;;17.60;99.90;;;;;;5050758;28;20047;-77
2023/08/20 06:52:06;;;;;;;12.35;5.20;;;16.80;99.90;;;;;;5053861;28;20120;-78
2023/08/20 06:54:31;;;;;;;17.83;6.90;;;17.90;99.90;;;;;;5053310;28;22151;-81
2023/08/20 06:56:57;;;;;;;12.63;5.47;;;17.10;99.90;;;;;;5033094;28;20068;-78
2023/08/20 06:59:23;;;;;;;20.50;6.82;;;17.00;99.90;;;;;;5042562;28;20411;-79
2023/08/20 07:01:49;;;;;;;15.88;6.78;;;17.00;99.90;;;;;;5049326;28;20037;-79
2023/08/20 07:04:14;;;;;;;11.15;5.70;;;17.10;99.90;;;;;;5048238;28;20068;-79
2023/08/20 07:06:41;;;;;;;13.88;5.60;;;17.20;99.90;;;;;;5041385;28;20069;-78
2023/08/20 07:09:07;;;;;;;18.15;6.43;;;17.20;99.90;;;;;;5047491;28;20045;-80
2023/08/20 07:11:32;;;;;;;10.20;5.43;;;17.30;99.90;;;;;;5017131;28;20087;-78
2023/08/20 07:13:58;;;;;;;11.40;5.20;;;18.10;99.90;;;;;;5041221;28;20041;-78
2023/08/20 07:16:24;;;;;;;13.60;6.18;;;17.50;99.90;;;;;;5041655;28;20775;-77
2023/08/20 07:18:49;;;;;;;18.17;7.00;;;17.50;99.90;;;;;;5040858;28;20065;-78
2023/08/20 07:21:15;;;;;;;12.85;5.88;;;17.60;99.90;;;;;;5041516;28;21653;-80
2023/08/20 07:23:40;;;;;;;23.05;7.82;;;17.70;99.90;;;;;;5043237;28;20040;-77
2023/08/20 07:26:13;;;;;;;17.38;7.22;;;17.80;99.90;;;;;;5024441;28;20496;-78
2023/08/20 07:28:59;;;;;;;17.92;6.25;;;17.80;99.90;;;;;;5041143;28;20037;-79
2023/08/20 07:31:30;;;;;;;20.92;5.63;;;17.90;99.90;;;;;;5024569;28;20404;-77
2023/08/20 07:33:57;;;;;;;19.63;6.10;;;18.20;99.90;;;;;;5045523;28;20029;-82
2023/08/20 07:36:25;;;;;;;16.90;5.97;;;18.00;99.90;;;;;;5051089;28;20370;-77
2023/08/20 07:38:52;;;;;;;19.27;5.47;;;18.00;99.90;;;;;;5027108;28;20044;-77
2023/08/20 07:41:19;;;;;;;15.60;5.47;;;18.10;99.90;;;;;;5032580;28;20110;-79
2023/08/20 07:43:45;;;;;;;12.63;5.35;;;18.10;99.90;;;;;;5053717;28;20048;-78
2023/08/20 07:46:11;;;;;;;12.90;5.18;;;18.30;99.90;;;;;;5055555;28;20048;-78
2023/08/20 07:48:37;;;;;;;11.07;4.90;;;18.20;99.90;;;;;;5030270;28;20053;-78
2023/08/20 07:51:03;;;;;;;11.35;4.82;;;18.30;99.90;;;;;;5042126;28;20049;-77
2023/08/20 07:53:29;;;;;;;15.90;4.85;;;18.40;99.90;;;;;;5041929;28;20076;-76
2023/08/20 07:55:55;;;;;;;17.88;5.68;;;18.50;99.90;;;;;;5047769;28;20037;-78
2023/08/20 07:58:21;;;;;;;16.23;5.28;;;18.60;99.90;;;;;;5041573;28;20352;-80
2023/08/20 08:00:46;;;;;;;18.98;4.78;;;18.60;99.90;;;;;;5040517;28;20481;-76
2023/08/20 08:03:14;;;;;;;15.38;5.55;;;18.70;99.90;;;;;;5022347;28;20048;-77
2023/08/20 08:05:50;;;;;;;17.10;4.63;;;18.80;99.90;;;;;;5039871;28;20037;-77
2023/08/20 08:08:20;;;;;;;17.60;4.47;;;18.80;99.90;;;;;;5041187;28;20068;-77
2023/08/20 08:10:46;;;;;;;17.30;4.13;;;18.90;99.90;;;;;;5020716;28;20725;-76
2023/08/20 08:13:18;;;;;;;12.98;3.78;;;18.90;99.90;;;;;;5039244;28;20033;-76
2023/08/20 08:15:43;;;;;;;11.27;4.13;;;19.00;99.90;;;;;;5042065;28;20112;-76
2023/08/20 08:18:09;;;;;;;11.45;4.13;;;19.10;99.90;;;;;;5039749;28;20485;-76
2023/08/20 08:20:35;;;;;;;10.95;3.80;;;19.10;99.90;;;;;;5040689;28;20040;-76
2023/08/20 08:23:00;;;;;;;13.32;4.45;;;19.20;99.90;;;;;;5022435;28;20041;-76
2023/08/20 08:25:27;;;;;;;16.98;4.47;;;19.20;99.90;;;;;;5041390;28;20043;-76
2023/08/20 08:27:52;;;;;;;18.17;5.10;;;19.40;99.90;;;;;;5039723;28;20037;-77
2023/08/20 08:30:18;;;;;;;11.73;3.13;;;19.40;99.90;;;;;;5041513;28;20051;-78
2023/08/20 08:32:44;;;;;;;15.85;3.75;;;19.40;99.90;;;;;;5023369;28;20130;-77
2023/08/20 08:35:09;;;;;;;14.93;4.90;;;19.50;99.90;;;;;;5038879;28;20037;-77
2023/08/20 08:37:35;;;;;;;11.38;3.67;;;19.50;99.90;;;;;;5042826;28;20099;-77
2023/08/20 08:40:05;;;;;;;11.25;3.40;;;19.60;99.90;;;;;;5044835;28;20052;-81
2023/08/20 08:42:32;;;;;;;14.50;3.33;;;19.70;99.90;;;;;;5043711;28;20174;-81
2023/08/20 08:45:02;;;;;;;11.85;3.20;;;19.80;99.90;;;;;;5051047;28;20051;-80
2023/08/20 08:47:29;;;;;;;11.98;3.55;;;19.80;99.90;;;;;;5027890;28;20045;-83
2023/08/20 08:49:57;;;;;;;18.05;3.20;;;19.90;99.90;;;;;;5046605;28;20033;-82
2023/08/20 08:52:23;;;;;;;13.57;2.85;;;19.90;99.90;;;;;;5039924;28;20033;-80
2023/08/20 08:54:49;;;;;;;10.18;2.30;;;19.90;99.90;;;;;;5037831;28;20049;-83
2023/08/20 08:57:15;;;;;;;12.18;2.53;;;20.00;99.90;;;;;;5048956;28;20421;-81
2023/08/20 08:59:42;;;;;;;11.75;2.08;;;20.00;99.90;;;;;;5045269;28;20125;-80
2023/08/20 09:02:12;;;;;;;12.25;2.28;;;20.20;99.90;;;;;;5047126;28;20121;-81
2023/08/20 09:04:40;;;;;;;8.80;1.80;;;20.20;99.90;;;;;;5030974;28;20589;-81
2023/08/20 09:07:11;;;;;;;6.72;1.80;;;20.30;99.90;;;;;;5046150;28;20182;-80
2023/08/20 09:09:38;;;;;;;7.82;2.30;;;20.40;99.90;;;;;;5043307;28;20041;-80
2023/08/20 09:12:13;;;;;;;9.15;1.88;;;20.50;99.90;;;;;;5037677;28;20051;-78
2023/08/20 09:14:39;;;;;;;14.35;2.60;;;20.60;99.90;;;;;;5029031;28;20045;-81
2023/08/20 09:17:05;;;;;;;8.38;2.47;;;20.60;99.90;;;;;;5044831;28;20512;-81
2023/08/20 09:19:37;;;;;;;10.68;2.35;;;20.70;99.90;;;;;;5050921;28;20033;-81
2023/08/20 09:22:03;;;;;;;9.82;1.67;;;20.70;99.90;;;;;;4688208;28;10000693;-81
2023/08/20 09:24:46;;;;;;;12.10;2.33;;;20.80;99.90;;;;;;5054248;28;20043;-80
2023/08/20 09:27:13;;;;;;;6.65;1.73;;;20.70;99.90;;;;;;5047779;28;20052;-80
2023/08/20 09:29:46;;;;;;;8.45;1.55;;;20.80;99.90;;;;;;5048479;28;20419;-80
2023/08/20 09:32:17;;;;;;;8.18;1.80;;;21.00;99.90;;;;;;5045881;28;20520;-82
2023/08/20 09:34:44;;;;;;;6.65;2.17;;;21.00;99.90;;;;;;5045640;28;20382;-83
2023/08/20 09:37:14;;;;;;;6.32;1.60;;;21.10;99.90;;;;;;5045818;28;20110;-84
2023/08/20 09:39:41;;;;;;;4.35;1.35;;;21.10;99.90;;;;;;5046974;28;20041;-84
2023/08/20 09:42:09;;;;;;;10.00;1.55;;;21.10;99.90;;;;;;5037275;28;20049;-78
2023/08/20 09:44:37;;;;;;;12.57;1.83;;;21.20;99.90;;;;;;5048517;28;20566;-82
2023/08/20 09:47:05;;;;;;;10.30;2.38;;;21.20;99.90;;;;;;5027637;28;20072;-82
2023/08/20 09:49:37;;;;;;;8.57;1.63;;;21.30;99.90;;;;;;5028096;28;20057;-81
2023/08/20 09:52:05;;;;;;;6.50;1.40;;;21.30;99.90;;;;;;5038659;28;20460;-80
2023/08/20 09:54:50;;;;;;;8.45;1.48;;;21.30;99.90;;;;;;5045943;28;20045;-80
2023/08/20 09:57:42;;;;;;;;;;;21.30;99.90;;;;;;5039434;28;20043;-81
2023/08/20 10:00:09;;;;;;;7.72;1.90;;;21.30;99.90;;;;;;5031767;28;20339;-81
2023/08/20 10:02:35;;;;;;;9.10;1.80;;;21.30;99.90;;;;;;5028028;28;20048;-82
2023/08/20 10:05:03;;;;;;;8.90;1.70;;;21.40;99.90;;;;;;5019776;28;20055;-81
2023/08/20 10:07:32;;;;;;;9.23;1.48;;;21.40;99.90;;;;;;5028479;28;20048;-82
2023/08/20 10:10:00;;;;;;;8.10;2.17;;;21.50;99.90;;;;;;5027834;28;20051;-82
2023/08/20 10:12:30;;;;;;;7.63;1.83;;;21.50;99.90;;;;;;5037666;28;20037;-83
2023/08/20 10:15:01;;;;;;;6.90;1.38;;;21.60;99.90;;;;;;5043089;28;20033;-82
2023/08/20 10:17:30;;;;;;;8.48;1.77;;;21.70;99.90;;;;;;5029997;28;20063;-83
2023/08/20 10:19:57;;;;;;;6.85;1.75;;;21.80;99.90;;;;;;5037948;28;20095;-83
2023/08/20 10:22:42;;;;;;;4.95;1.60;;;22.30;99.90;;;;;;5028772;28;20047;-83
2023/08/20 10:25:11;;;;;;;;;;;22.30;99.90;;;;;;5034400;28;20038;-84
2023/08/20 10:27:40;;;;;;;7.68;1.60;;;21.90;99.90;;;;;;5043454;28;20054;-83
2023/08/20 10:30:15;;;;;;;8.73;1.83;;;21.90;99.90;;;;;;5036604;28;20149;-86
2023/08/20 10:32:48;;;;;;;10.45;2.03;;;22.00;99.90;;;;;;5039838;28;20053;-82
2023/08/20 10:35:28;;;;;;;8.02;1.42;;;22.00;99.90;;;;;;5037314;28;20529;-83
2023/08/20 10:38:16;;;;;;;11.20;2.15;;;22.10;99.90;;;;;;5038838;28;20029;-82
2023/08/20 10:40:59;;;;;;;8.38;1.52;;;22.10;99.90;;;;;;5028272;28;20053;-82
2023/08/20 10:43:36;;;;;;;6.10;1.60;;;22.10;99.90;;;;;;5012197;28;20405;-86
2023/08/20 10:46:15;;;;;;;8.45;1.73;;;22.20;99.90;;;;;;5033112;28;20057;-83
2023/08/20 10:48:41;;;;;;;11.32;3.30;;;22.20;99.90;;;;;;5036738;28;20130;-82
2023/08/20 10:51:31;;;;;;;14.27;5.10;;;22.20;99.90;;;;;;5047542;28;20084;-83
2023/08/20 10:54:00;;;;;;;11.23;2.13;;;22.20;99.90;;;;;;5051762;28;20127;-81
2023/08/20 10:56:38;;;;;;;10.60;1.55;;;22.20;99.90;;;;;;5060515;28;20098;-85
2023/08/20 10:59:27;;;;;;;6.53;1.73;;;22.20;99.90;;;;;;5052495;28;20703;-82
2023/08/20 11:01:56;;;;;;;5.25;1.83;;;22.30;99.90;;;;;;5031493;28;20624;-84
2023/08/20 11:04:26;;;;;;;5.97;1.20;;;22.40;99.90;;;;;;5040597;28;20250;-82
2023/08/20 11:06:54;;;;;;;8.75;1.88;;;22.40;99.90;;;;;;5035596;28;20052;-79
2023/08/20 11:09:22;;;;;;;6.45;1.45;;;22.50;99.90;;;;;;5031901;28;20037;-82
2023/08/20 11:11:48;;;;;;;4.18;1.15;;;22.60;99.90;;;;;;5049643;28;20104;-82
2023/08/20 11:14:15;;;;;;;9.65;1.70;;;22.70;99.90;;;;;;5044812;28;20129;-81
2023/08/20 11:16:42;;;;;;;7.57;1.63;;;22.70;99.90;;;;;;4996336;28;20112;-84
2023/08/20 11:19:08;;;;;;;5.20;0.90;;;22.70;99.90;;;;;;5042293;28;20045;-83
2023/08/20 11:21:44;;;;;;;4.35;0.93;;;22.80;99.90;;;;;;5052333;28;20041;-82
2023/08/20 11:24:11;;;;;;;7.07;1.23;;;22.80;99.90;;;;;;5007851;28;20546;-81
2023/08/20 11:26:40;;;;;;;8.73;1.08;;;22.90;99.90;;;;;;5048944;28;20124;-82
2023/08/20 11:29:07;;;;;;;5.03;1.05;;;22.90;99.90;;;;;;5046219;28;20114;-82
2023/08/20 11:31:33;;;;;;;5.70;1.38;;;23.00;99.90;;;;;;5038137;28;20079;-82
2023/08/20 11:33:59;;;;;;;6.25;0.80;;;22.90;99.90;;;;;;5046707;28;20037;-82
2023/08/20 11:36:25;;;;;;;6.13;1.20;;;23.10;99.90;;;;;;5043924;28;20524;-82
2023/08/20 11:38:54;;;;;;;6.35;1.52;;;23.10;99.90;;;;;;5039367;28;20090;-82
2023/08/20 11:41:24;;;;;;;6.60;1.23;;;23.30;99.90;;;;;;5041516;28;20424;-82
2023/08/20 11:43:51;;;;;;;4.13;1.02;;;23.30;99.90;;;;;;5045427;28;20033;-82
2023/08/20 11:46:19;;;;;;;5.55;0.80;;;23.40;99.90;;;;;;5028434;28;20489;-80
2023/08/20 11:49:04;;;;;;;9.00;2.22;;;23.40;99.90;;;;;;5045234;28;20101;-82
2023/08/20 11:51:45;;;;;;;7.30;1.50;;;23.60;99.90;;;;;;5012056;28;20106;-81
2023/08/20 11:54:16;;;;;;;9.13;1.42;;;23.60;99.90;;;;;;5028483;28;20521;-83
2023/08/20 11:56:49;;;;;;;6.47;1.23;;;23.70;99.90;;;;;;5046828;28;20504;-82
2023/08/20 11:59:16;;;;;;;6.25;1.35;;;23.80;99.90;;;;;;5028416;28;20148;-82
2023/08/20 12:01:42;;;;;;;8.57;1.63;;;23.80;99.90;;;;;;5048796;28;20102;-82
2023/08/20 12:04:09;;;;;;;6.85;1.45;;;23.80;99.90;;;;;;5038828;28;20496;-82
2023/08/20 12:06:36;;;;;;;7.07;1.40;;;23.80;99.90;;;;;;5045909;28;20056;-82
2023/08/20 12:09:19;;;;;;;7.35;1.77;;;23.90;99.90;;;;;;5045787;28;20057;-83
2023/08/20 12:11:52;;;;;;;7.15;1.33;;;23.90;99.90;;;;;;5046314;28;20073;-82
2023/08/20 12:14:19;;;;;;;5.78;1.48;;;23.90;99.90;;;;;;5044533;28;20068;-82
2023/08/20 12:16:44;;;;;;;7.03;1.45;;;24.00;99.90;;;;;;5030275;28;20045;-82
2023/08/20 12:19:10;;;;;;;4.25;0.98;;;23.90;99.90;;;;;;5012072;28;20049;-81
2023/08/20 12:21:36;;;;;;;7.13;1.30;;;24.00;99.90;;;;;;5047379;28;20029;-81
2023/08/20 12:24:02;;;;;;;5.80;1.08;;;24.00;99.90;;;;;;5024311;28;20048;-81
2023/08/20 12:26:28;;;;;;;6.97;1.30;;;24.20;99.90;;;;;;5046134;28;20045;-82
2023/08/20 12:28:54;;;;;;;4.60;1.00;;;24.30;99.90;;;;;;5032924;28;20052;-82
2023/08/20 12:31:20;;;;;;;8.68;1.38;;;24.30;99.90;;;;;;5047098;28;20045;-82
2023/08/20 12:33:46;;;;;;;3.13;0.85;;;24.40;99.90;;;;;;5012298;28;20090;-83
2023/08/20 12:36:19;;;;;;;4.55;0.85;;;24.40;99.90;;;;;;5036929;28;20041;-81
2023/08/20 12:38:45;;;;;;;4.80;1.05;;;24.50;99.90;;;;;;5028648;28;20052;-81
2023/08/20 12:41:11;;;;;;;6.47;1.35;;;24.50;99.90;;;;;;5026046;28;20045;-81
2023/08/20 12:43:36;;;;;;;5.80;1.40;;;24.60;99.90;;;;;;5040500;28;20033;-82
2023/08/20 12:46:03;;;;;;;3.88;0.73;;;24.60;99.90;;;;;;5041390;28;20045;-81